createdAt,value
2018-06-04T00:00:22.957Z,0.00
2018-06-04T00:01:22.957Z,0.00
2018-06-04T00:02:22.947Z,0.00
2018-06-04T00:03:22.946Z,0.00
2018-06-04T00:04:22.951Z,0.00
2018-06-04T00:05:22.947Z,0.00
2018-06-04T00:06:22.950Z,0.00
2018-06-04T00:07:22.947Z,0.00
2018-06-04T00:08:22.940Z,0.00
2018-06-04T00:09:22.939Z,0.00
2018-06-04T00:10:22.938Z,0.00
2018-06-04T00:11:22.937Z,0.00
2018-06-04T00:12:22.963Z,0.00
2018-06-04T00:13:22.941Z,0.00
2018-06-04T00:14:22.936Z,0.00
2018-06-04T00:15:22.935Z,0.00
2018-06-04T00:16:22.930Z,0.00
2018-06-04T00:17:22.928Z,0.00
2018-06-04T00:18:22.932Z,0.00
2018-06-04T00:19:22.931Z,0.00
2018-06-04T00:20:22.924Z,0.00
2018-06-04T00:21:22.923Z,0.00
2018-06-04T00:22:22.923Z,0.00
2018-06-04T00:23:22.922Z,0.00
2018-06-04T00:24:22.925Z,0.00
2018-06-04T00:25:22.927Z,0.00
2018-06-04T00:26:22.923Z,0.00
2018-06-04T00:27:22.921Z,0.00
2018-06-04T00:28:22.914Z,0.00
2018-06-04T00:29:22.913Z,0.00
2018-06-04T00:30:22.911Z,0.00
2018-06-04T00:31:22.910Z,0.00
2018-06-04T00:32:22.941Z,0.00
2018-06-04T00:33:22.912Z,0.00
2018-06-04T00:34:22.906Z,0.00
2018-06-04T00:35:22.904Z,0.00
2018-06-04T00:36:22.914Z,0.00
2018-06-04T00:37:22.905Z,0.00
2018-06-04T00:38:22.906Z,0.00
2018-06-04T00:39:22.909Z,0.00
2018-06-04T00:40:22.898Z,0.00
2018-06-04T00:41:22.897Z,0.00
2018-06-04T00:42:22.896Z,0.00
2018-06-04T00:43:22.894Z,0.00
2018-06-04T00:44:22.896Z,0.00
2018-06-04T00:45:22.896Z,0.00
2018-06-04T00:46:22.895Z,0.00
2018-06-04T00:47:22.892Z,0.00
2018-06-04T00:48:22.886Z,0.00
2018-06-04T00:49:22.885Z,0.00
2018-06-04T00:50:22.917Z,0.00
2018-06-04T00:51:22.888Z,0.00
2018-06-04T00:52:22.881Z,0.00
2018-06-04T00:53:22.880Z,0.00
2018-06-04T00:54:22.879Z,0.00
2018-06-04T00:55:22.877Z,0.00
2018-06-04T00:56:22.880Z,0.00
2018-06-04T00:57:22.879Z,0.00
2018-06-04T00:58:22.876Z,0.00
2018-06-04T00:59:22.875Z,0.00
2018-06-04T01:00:22.869Z,0.00
2018-06-04T01:01:22.868Z,0.00
2018-06-04T01:02:22.866Z,0.00
2018-06-04T01:03:22.865Z,0.00
2018-06-04T01:04:22.868Z,0.00
2018-06-04T01:05:22.867Z,0.00
2018-06-04T01:06:22.861Z,0.00
2018-06-04T01:07:22.861Z,0.00
2018-06-04T01:08:22.862Z,0.00
2018-06-04T01:09:22.861Z,0.00
2018-06-04T01:10:22.859Z,0.00
2018-06-04T01:11:22.858Z,0.00
2018-06-04T01:12:22.851Z,0.00
2018-06-04T01:13:22.851Z,0.00
2018-06-04T01:14:22.848Z,0.00
2018-06-04T01:15:22.849Z,0.00
2018-06-04T01:16:22.849Z,0.00
2018-06-04T01:17:22.848Z,0.00
2018-06-04T01:18:22.847Z,0.00
2018-06-04T01:19:22.846Z,0.00
2018-06-04T01:20:22.839Z,0.00
2018-06-04T01:21:22.837Z,0.00
2018-06-04T01:22:22.842Z,0.00
2018-06-04T01:23:22.841Z,0.00
2018-06-04T01:24:22.832Z,0.00
2018-06-04T01:25:22.831Z,0.00
2018-06-04T01:26:22.830Z,0.00
2018-06-04T01:27:22.830Z,0.00
2018-06-04T01:28:22.831Z,0.00
2018-06-04T01:29:22.830Z,0.00
2018-06-04T01:30:22.829Z,0.00
2018-06-04T01:31:22.826Z,0.00
2018-06-04T01:32:22.822Z,0.00
2018-06-04T01:33:22.818Z,0.00
2018-06-04T01:34:22.817Z,0.00
2018-06-04T01:35:22.816Z,0.00
2018-06-04T01:36:22.819Z,0.00
2018-06-04T01:37:22.818Z,0.00
2018-06-04T01:38:22.813Z,0.00
2018-06-04T01:39:22.810Z,0.00
2018-06-04T01:40:22.812Z,0.00
2018-06-04T01:41:22.811Z,0.00
2018-06-04T01:42:22.809Z,0.00
2018-06-04T01:43:22.808Z,0.00
2018-06-04T01:44:22.802Z,0.00
2018-06-04T01:45:22.799Z,0.00
2018-06-04T01:46:22.798Z,0.00
2018-06-04T01:47:22.797Z,0.00
2018-06-04T01:48:22.798Z,0.00
2018-06-04T01:49:22.796Z,0.00
2018-06-04T01:50:22.801Z,0.00
2018-06-04T01:51:22.794Z,0.00
2018-06-04T01:52:22.788Z,0.00
2018-06-04T01:53:22.786Z,0.00
2018-06-04T01:54:22.790Z,0.00
2018-06-04T01:55:22.788Z,0.00
2018-06-04T01:56:22.780Z,0.00
2018-06-04T01:57:22.780Z,0.00
2018-06-04T01:58:22.777Z,0.00
2018-06-04T01:59:22.776Z,0.00
2018-06-04T02:00:22.778Z,0.00
2018-06-04T02:01:22.776Z,0.00
2018-06-04T02:02:22.776Z,0.00
2018-06-04T02:03:22.774Z,0.00
2018-06-04T02:04:22.766Z,0.00
2018-06-04T02:05:22.766Z,0.00
2018-06-04T02:06:22.763Z,0.00
2018-06-04T02:07:22.762Z,0.00
2018-06-04T02:08:22.768Z,0.00
2018-06-04T02:09:22.762Z,0.00
2018-06-04T02:10:22.756Z,0.00
2018-06-04T02:11:22.756Z,0.00
2018-06-04T02:12:22.756Z,0.00
2018-06-04T02:13:22.755Z,0.00
2018-06-04T02:14:22.754Z,0.00
2018-06-04T02:15:22.757Z,0.00
2018-06-04T02:16:22.745Z,0.00
2018-06-04T02:17:22.743Z,0.00
2018-06-04T02:18:22.743Z,0.00
2018-06-04T02:19:22.742Z,0.00
2018-06-04T02:20:22.747Z,0.00
2018-06-04T02:21:22.741Z,0.00
2018-06-04T02:22:22.739Z,0.00
2018-06-04T02:23:22.737Z,0.00
2018-06-04T02:24:22.730Z,0.00
2018-06-04T02:25:22.729Z,0.00
2018-06-04T02:26:22.731Z,0.00
2018-06-04T02:27:22.735Z,0.00
2018-06-04T02:28:22.723Z,0.00
2018-06-04T02:29:22.722Z,0.00
2018-06-04T02:30:22.719Z,0.00
2018-06-04T02:31:22.720Z,0.00
2018-06-04T02:32:22.723Z,0.00
2018-06-04T02:33:22.719Z,0.00
2018-06-04T02:34:22.719Z,0.00
2018-06-04T02:35:22.715Z,0.00
2018-06-04T02:36:22.711Z,0.00
2018-06-04T02:37:22.708Z,0.00
2018-06-04T02:38:22.705Z,0.00
2018-06-04T02:39:22.703Z,0.00
2018-06-04T02:40:22.717Z,0.00
2018-06-04T02:41:22.703Z,0.00
2018-06-04T02:42:22.701Z,0.00
2018-06-04T02:43:22.696Z,0.00
2018-06-04T02:44:22.699Z,0.00
2018-06-04T02:45:22.695Z,0.00
2018-06-04T02:46:22.695Z,0.00
2018-06-04T02:47:22.704Z,0.00
2018-06-04T02:48:22.685Z,0.00
2018-06-04T02:49:22.684Z,0.00
2018-06-04T02:50:22.685Z,0.00
2018-06-04T02:51:22.679Z,0.00
2018-06-04T02:52:22.687Z,0.00
2018-06-04T02:53:22.682Z,0.00
2018-06-04T02:54:22.680Z,0.00
2018-06-04T02:55:22.677Z,0.00
2018-06-04T02:56:22.669Z,0.00
2018-06-04T02:57:22.667Z,0.00
2018-06-04T02:58:22.673Z,0.00
2018-06-04T02:59:22.668Z,0.00
2018-06-04T03:00:22.661Z,0.00
2018-06-04T03:01:22.660Z,0.00
2018-06-04T03:02:22.657Z,0.00
2018-06-04T03:03:22.657Z,0.00
2018-06-04T03:04:22.659Z,0.00
2018-06-04T03:05:22.656Z,0.00
2018-06-04T03:06:22.655Z,0.00
2018-06-04T03:07:22.652Z,5.63
2018-06-04T03:08:22.647Z,5.63
2018-06-04T03:09:22.643Z,5.63
2018-06-04T03:10:22.646Z,5.63
2018-06-04T03:11:22.642Z,5.63
2018-06-04T03:12:22.643Z,5.63
2018-06-04T03:13:22.647Z,5.63
2018-06-04T03:14:22.634Z,5.63
2018-06-04T03:15:22.635Z,5.63
2018-06-04T03:16:22.635Z,11.25
2018-06-04T03:17:22.632Z,11.25
2018-06-04T03:18:22.631Z,11.25
2018-06-04T03:19:22.628Z,11.25
2018-06-04T03:20:22.622Z,11.25
2018-06-04T03:21:22.619Z,11.25
2018-06-04T03:22:22.617Z,16.88
2018-06-04T03:23:22.614Z,16.88
2018-06-04T03:24:22.617Z,16.88
2018-06-04T03:25:22.616Z,16.88
2018-06-04T03:26:22.618Z,22.50
2018-06-04T03:27:22.612Z,22.50
2018-06-04T03:28:22.604Z,22.50
2018-06-04T03:29:22.603Z,22.50
2018-06-04T03:30:22.606Z,28.13
2018-06-04T03:31:22.604Z,28.13
2018-06-04T03:32:22.596Z,28.13
2018-06-04T03:33:22.594Z,33.75
2018-06-04T03:34:22.593Z,33.75
2018-06-04T03:35:22.591Z,33.75
2018-06-04T03:36:22.593Z,39.38
2018-06-04T03:37:22.590Z,39.38
2018-06-04T03:38:22.589Z,39.38
2018-06-04T03:39:22.590Z,45.00
2018-06-04T03:40:22.582Z,45.00
2018-06-04T03:41:22.578Z,50.63
2018-06-04T03:42:22.576Z,50.63
2018-06-04T03:43:22.574Z,50.63
2018-06-04T03:44:22.577Z,56.25
2018-06-04T03:45:22.575Z,56.25
2018-06-04T03:46:22.569Z,61.88
2018-06-04T03:47:22.567Z,61.88
2018-06-04T03:48:22.570Z,67.50
2018-06-04T03:49:22.568Z,67.50
2018-06-04T03:50:22.565Z,73.13
2018-06-04T03:51:22.563Z,73.13
2018-06-04T03:52:22.556Z,78.75
2018-06-04T03:53:22.553Z,78.75
2018-06-04T03:54:22.552Z,84.38
2018-06-04T03:55:22.550Z,84.38
2018-06-04T03:56:22.552Z,84.38
2018-06-04T03:57:22.550Z,90.00
2018-06-04T03:58:22.549Z,90.00
2018-06-04T03:59:22.547Z,95.63
2018-06-04T04:00:22.540Z,95.63
2018-06-04T04:01:22.539Z,101.25
2018-06-04T04:02:22.541Z,101.25
2018-06-04T04:03:22.540Z,106.88
2018-06-04T04:04:22.533Z,106.88
2018-06-04T04:05:22.531Z,112.50
2018-06-04T04:06:22.530Z,112.50
2018-06-04T04:07:22.528Z,118.13
2018-06-04T04:08:22.543Z,118.13
2018-06-04T04:09:22.527Z,123.75
2018-06-04T04:10:22.529Z,123.75
2018-06-04T04:11:22.526Z,129.38
2018-06-04T04:12:22.519Z,129.38
2018-06-04T04:13:22.517Z,129.38
2018-06-04T04:14:22.515Z,135.00
2018-06-04T04:15:22.512Z,140.63
2018-06-04T04:16:22.514Z,146.25
2018-06-04T04:17:22.515Z,151.88
2018-06-04T04:18:22.507Z,157.50
2018-06-04T04:19:22.576Z,157.50
2018-06-04T04:20:22.508Z,163.13
2018-06-04T04:21:22.507Z,168.75
2018-06-04T04:22:22.506Z,174.38
2018-06-04T04:23:22.505Z,174.38
2018-06-04T04:24:22.498Z,180.00
2018-06-04T04:25:22.496Z,185.63
2018-06-04T04:26:22.497Z,191.25
2018-06-04T04:27:22.495Z,196.88
2018-06-04T04:28:22.496Z,202.50
2018-06-04T04:29:22.494Z,208.13
2018-06-04T04:30:22.494Z,219.38
2018-06-04T04:31:22.492Z,219.38
2018-06-04T04:32:22.485Z,225.00
2018-06-04T04:33:22.484Z,225.00
2018-06-04T04:34:22.487Z,230.63
2018-06-04T04:35:22.486Z,236.25
2018-06-04T04:36:22.480Z,241.88
2018-06-04T04:37:22.478Z,247.50
2018-06-04T04:38:22.480Z,253.13
2018-06-04T04:39:22.477Z,258.75
2018-06-04T04:40:22.479Z,264.38
2018-06-04T04:41:22.478Z,264.38
2018-06-04T04:42:22.479Z,264.38
2018-06-04T04:43:22.482Z,270.00
2018-06-04T04:44:22.469Z,275.63
2018-06-04T04:45:22.469Z,281.25
2018-06-04T04:46:22.468Z,292.50
2018-06-04T04:47:22.467Z,303.75
2018-06-04T04:48:22.470Z,303.75
2018-06-04T04:49:22.470Z,315.00
2018-06-04T04:50:22.464Z,326.25
2018-06-04T04:51:22.464Z,348.75
2018-06-04T04:52:22.465Z,405.00
2018-06-04T04:53:22.465Z,461.25
2018-06-04T04:54:22.472Z,500.63
2018-06-04T04:55:22.465Z,528.75
2018-06-04T04:56:22.460Z,545.63
2018-06-04T04:57:22.458Z,562.50
2018-06-04T04:58:22.459Z,579.38
2018-06-04T04:59:22.459Z,601.88
2018-06-04T05:00:22.463Z,624.38
2018-06-04T05:01:22.472Z,641.25
2018-06-04T05:02:22.463Z,663.75
2018-06-04T05:03:22.464Z,680.63
2018-06-04T05:04:22.459Z,697.50
2018-06-04T05:05:22.460Z,714.38
2018-06-04T05:06:22.466Z,731.25
2018-06-04T05:07:22.467Z,742.50
2018-06-04T05:08:22.464Z,748.13
2018-06-04T05:09:22.465Z,765.00
2018-06-04T05:10:22.467Z,776.25
2018-06-04T05:11:22.469Z,793.13
2018-06-04T05:12:22.476Z,804.38
2018-06-04T05:13:22.478Z,815.63
2018-06-04T05:14:22.490Z,781.88
2018-06-04T05:15:22.484Z,821.25
2018-06-04T05:16:22.482Z,826.88
2018-06-04T05:17:22.484Z,787.50
2018-06-04T05:18:22.488Z,804.38
2018-06-04T05:19:22.491Z,832.50
2018-06-04T05:20:22.499Z,804.38
2018-06-04T05:21:22.503Z,781.88
2018-06-04T05:22:22.502Z,810.00
2018-06-04T05:23:22.506Z,798.75
2018-06-04T05:24:22.513Z,815.63
2018-06-04T05:25:22.519Z,855.00
2018-06-04T05:26:22.521Z,883.13
2018-06-04T05:27:22.526Z,888.75
2018-06-04T05:28:22.524Z,911.25
2018-06-04T05:29:22.533Z,928.13
2018-06-04T05:30:22.539Z,939.38
2018-06-04T05:31:22.538Z,967.50
2018-06-04T05:32:22.547Z,978.75
2018-06-04T05:33:22.553Z,995.63
2018-06-04T05:34:22.558Z,978.75
2018-06-04T05:35:22.563Z,978.75
2018-06-04T05:36:22.563Z,922.50
2018-06-04T05:37:22.568Z,905.63
2018-06-04T05:38:22.578Z,900.00
2018-06-04T05:39:22.585Z,967.50
2018-06-04T05:40:22.583Z,945.00
2018-06-04T05:41:22.590Z,945.00
2018-06-04T05:42:22.600Z,1080.00
2018-06-04T05:43:22.600Z,1108.13
2018-06-04T05:44:22.611Z,1141.88
2018-06-04T05:45:22.616Z,1164.38
2018-06-04T05:46:22.621Z,1181.25
2018-06-04T05:47:22.631Z,1181.25
2018-06-04T05:48:22.629Z,1153.13
2018-06-04T05:49:22.635Z,1136.25
2018-06-04T05:50:22.642Z,1096.88
2018-06-04T05:51:22.648Z,1080.00
2018-06-04T05:52:22.660Z,1068.75
2018-06-04T05:53:22.668Z,1108.13
2018-06-04T05:54:22.667Z,1125.00
2018-06-04T05:55:22.674Z,1125.00
2018-06-04T05:56:22.686Z,1248.75
2018-06-04T05:57:22.697Z,1243.13
2018-06-04T05:58:22.699Z,1271.25
2018-06-04T05:59:22.706Z,1305.00
2018-06-04T06:00:22.708Z,1293.75
2018-06-04T06:01:22.715Z,1338.75
2018-06-04T06:02:22.724Z,1372.50
2018-06-04T06:03:22.734Z,1383.75
2018-06-04T06:04:22.742Z,1395.00
2018-06-04T06:05:22.748Z,1355.63
2018-06-04T06:06:22.765Z,1395.00
2018-06-04T06:07:22.773Z,1389.38
2018-06-04T06:08:22.768Z,1366.88
2018-06-04T06:09:22.780Z,1423.13
2018-06-04T06:10:22.790Z,1456.88
2018-06-04T06:11:22.797Z,1456.88
2018-06-04T06:12:22.800Z,1468.13
2018-06-04T06:13:22.811Z,1395.00
2018-06-04T06:14:22.826Z,1524.38
2018-06-04T06:15:22.829Z,1546.88
2018-06-04T06:16:22.841Z,1558.13
2018-06-04T06:17:22.847Z,1558.13
2018-06-04T06:18:22.858Z,1507.50
2018-06-04T06:19:22.867Z,1575.00
2018-06-04T06:20:22.875Z,1563.75
2018-06-04T06:21:22.882Z,1603.13
2018-06-04T06:22:22.890Z,1513.13
2018-06-04T06:23:22.899Z,1608.75
2018-06-04T06:24:22.913Z,1625.63
2018-06-04T06:25:22.956Z,1620.00
2018-06-04T06:26:22.929Z,1620.00
2018-06-04T06:27:22.939Z,1648.13
2018-06-04T06:28:22.953Z,1648.13
2018-06-04T06:29:22.963Z,1670.63
2018-06-04T06:30:22.975Z,1698.75
2018-06-04T06:31:22.986Z,1721.25
2018-06-04T06:32:22.990Z,1732.50
2018-06-04T06:33:23.002Z,1749.38
2018-06-04T06:34:23.016Z,1760.63
2018-06-04T06:35:23.032Z,1771.88
2018-06-04T06:36:23.048Z,1777.50
2018-06-04T06:37:23.051Z,1783.13
2018-06-04T06:38:23.061Z,1794.38
2018-06-04T06:39:23.072Z,1805.63
2018-06-04T06:40:23.107Z,1816.88
2018-06-04T06:41:23.090Z,1833.75
2018-06-04T06:42:23.107Z,1850.63
2018-06-04T06:43:23.119Z,1861.88
2018-06-04T06:44:23.126Z,1878.75
2018-06-04T06:45:23.141Z,1873.13
2018-06-04T06:46:23.150Z,1890.00
2018-06-04T06:47:23.163Z,1895.63
2018-06-04T06:48:23.179Z,1912.50
2018-06-04T06:49:23.193Z,1912.50
2018-06-04T06:50:23.204Z,1935.00
2018-06-04T06:51:23.215Z,1935.00
2018-06-04T06:52:23.223Z,1923.75
2018-06-04T06:53:23.235Z,1968.75
2018-06-04T06:54:23.249Z,1985.63
2018-06-04T06:55:23.316Z,1991.25
2018-06-04T06:56:23.278Z,1996.88
2018-06-04T06:57:23.290Z,2008.13
2018-06-04T06:58:23.299Z,2008.13
2018-06-04T06:59:23.313Z,2025.00
2018-06-04T07:00:23.330Z,2030.63
2018-06-04T07:01:23.344Z,2036.25
2018-06-04T07:02:23.359Z,2041.88
2018-06-04T07:03:23.373Z,2053.13
2018-06-04T07:04:23.380Z,2064.38
2018-06-04T07:05:23.394Z,2070.00
2018-06-04T07:06:23.408Z,2081.25
2018-06-04T07:07:23.422Z,2092.50
2018-06-04T07:08:23.453Z,2098.13
2018-06-04T07:09:23.456Z,2103.75
2018-06-04T07:10:23.470Z,2126.25
2018-06-04T07:11:23.482Z,2154.38
2018-06-04T07:12:23.491Z,2193.75
2018-06-04T07:13:23.506Z,2227.50
2018-06-04T07:14:23.526Z,2266.88
2018-06-04T07:15:23.539Z,2295.00
2018-06-04T07:16:23.548Z,2266.88
2018-06-04T07:17:23.564Z,2345.63
2018-06-04T07:18:23.579Z,2413.13
2018-06-04T07:19:23.593Z,2486.25
2018-06-04T07:20:23.614Z,2559.38
2018-06-04T07:21:23.641Z,2638.13
2018-06-04T07:22:23.644Z,2739.38
2018-06-04T07:23:23.657Z,3003.75
2018-06-04T07:24:23.668Z,3391.88
2018-06-04T07:25:23.683Z,3757.50
2018-06-04T07:26:23.699Z,3965.63
2018-06-04T07:27:23.714Z,3915.00
2018-06-04T07:28:23.733Z,3667.50
2018-06-04T07:29:23.747Z,3706.88
2018-06-04T07:30:23.759Z,3808.13
2018-06-04T07:31:23.776Z,3960.00
2018-06-04T07:32:23.794Z,3723.75
2018-06-04T07:33:23.809Z,2171.25
2018-06-04T07:34:23.825Z,4055.63
2018-06-04T07:35:23.840Z,3931.88
2018-06-04T07:36:23.854Z,3948.75
2018-06-04T07:37:23.865Z,3847.50
2018-06-04T07:38:23.884Z,4117.50
2018-06-04T07:39:23.899Z,4027.50
2018-06-04T07:40:23.915Z,4005.00
2018-06-04T07:41:23.989Z,4246.88
2018-06-04T07:42:23.948Z,4190.63
2018-06-04T07:43:23.964Z,4140.00
2018-06-04T07:44:24.052Z,4241.25
2018-06-04T07:45:23.991Z,4331.25
2018-06-04T07:46:24.011Z,4303.13
2018-06-04T07:47:24.026Z,4016.25
2018-06-04T07:48:24.037Z,3301.88
2018-06-04T07:49:24.305Z,4404.38
2018-06-04T07:50:24.071Z,5118.75
2018-06-04T07:51:24.086Z,4741.88
2018-06-04T07:52:24.113Z,4432.50
2018-06-04T07:53:24.124Z,4561.88
2018-06-04T07:54:24.139Z,4708.13
2018-06-04T07:55:24.162Z,5006.25
2018-06-04T07:56:24.168Z,5017.50
2018-06-04T07:57:24.206Z,4741.88
2018-06-04T07:58:24.202Z,4573.13
2018-06-04T07:59:24.220Z,4691.25
2018-06-04T08:00:24.239Z,4786.88
2018-06-04T08:01:24.257Z,4685.63
2018-06-04T08:02:24.269Z,4342.50
2018-06-04T08:03:24.287Z,4303.13
2018-06-04T08:04:24.357Z,4021.88
2018-06-04T08:05:24.324Z,3993.75
2018-06-04T08:06:24.361Z,4252.50
2018-06-04T08:07:24.359Z,4269.38
2018-06-04T08:08:24.370Z,4291.88
2018-06-04T08:09:24.385Z,4522.50
2018-06-04T08:10:24.404Z,4297.50
2018-06-04T08:11:24.422Z,4044.38
2018-06-04T08:12:24.443Z,4072.50
2018-06-04T08:13:24.460Z,4421.25
2018-06-04T08:14:24.479Z,4781.25
2018-06-04T08:15:24.496Z,4882.50
2018-06-04T08:16:24.509Z,4207.50
2018-06-04T08:17:24.526Z,3796.88
2018-06-04T08:18:24.548Z,4078.13
2018-06-04T08:19:24.567Z,4117.50
2018-06-04T08:20:24.580Z,3268.13
2018-06-04T08:21:24.598Z,3341.25
2018-06-04T08:22:24.614Z,3071.25
2018-06-04T08:23:24.632Z,3211.88
2018-06-04T08:24:24.656Z,3487.50
2018-06-04T08:25:24.671Z,3538.13
2018-06-04T08:26:24.690Z,3256.88
2018-06-04T08:27:24.708Z,3414.38
2018-06-04T08:28:24.722Z,3228.75
2018-06-04T08:29:24.741Z,3403.13
2018-06-04T08:30:24.756Z,3189.38
2018-06-04T08:31:24.775Z,3223.13
2018-06-04T08:32:24.797Z,3420.00
2018-06-04T08:33:24.817Z,3375.00
2018-06-04T08:34:24.838Z,3211.88
2018-06-04T08:35:24.845Z,3358.13
2018-06-04T08:36:24.867Z,3650.63
2018-06-04T08:37:24.884Z,3673.13
2018-06-04T08:38:24.956Z,3605.63
2018-06-04T08:39:24.919Z,3622.50
2018-06-04T08:40:24.930Z,3729.38
2018-06-04T08:41:24.949Z,3667.50
2018-06-04T08:42:24.966Z,3723.75
2018-06-04T08:43:24.983Z,3802.50
2018-06-04T08:44:25.009Z,3785.63
2018-06-04T08:45:25.023Z,3684.38
2018-06-04T08:46:25.041Z,3560.63
2018-06-04T08:47:25.058Z,3476.25
2018-06-04T08:48:25.072Z,3611.25
2018-06-04T08:49:25.090Z,3729.38
2018-06-04T08:50:25.116Z,3920.63
2018-06-04T08:51:25.134Z,4083.75
2018-06-04T08:52:25.145Z,3926.25
2018-06-04T08:53:25.163Z,3785.63
2018-06-04T08:54:25.199Z,3926.25
2018-06-04T08:55:25.201Z,4224.38
2018-06-04T08:56:25.295Z,4455.00
2018-06-04T08:57:25.241Z,4691.25
2018-06-04T08:58:25.260Z,4871.25
2018-06-04T08:59:25.280Z,4708.13
2018-06-04T09:00:25.293Z,4173.75
2018-06-04T09:01:25.312Z,3740.63
2018-06-04T09:02:25.332Z,3498.75
2018-06-04T09:03:25.355Z,3386.25
2018-06-04T09:04:25.373Z,3313.13
2018-06-04T09:05:25.394Z,3228.75
2018-06-04T09:06:25.408Z,3245.63
2018-06-04T09:07:25.428Z,3183.75
2018-06-04T09:08:25.451Z,3155.63
2018-06-04T09:09:25.469Z,3121.88
2018-06-04T09:10:25.492Z,3313.13
2018-06-04T09:11:25.511Z,3403.13
2018-06-04T09:12:25.524Z,3234.38
2018-06-04T09:13:25.541Z,3234.38
2018-06-04T09:14:25.561Z,3290.63
2018-06-04T09:15:25.585Z,3476.25
2018-06-04T09:16:25.603Z,3262.50
2018-06-04T09:17:25.632Z,1946.25
2018-06-04T09:18:25.641Z,2244.38
2018-06-04T09:19:25.661Z,3622.50
2018-06-04T09:20:25.674Z,3532.50
2018-06-04T09:21:25.693Z,3555.00
2018-06-04T09:22:25.716Z,3487.50
2018-06-04T09:23:25.736Z,1580.63
2018-06-04T09:24:25.748Z,1586.25
2018-06-04T09:25:25.767Z,3706.88
2018-06-04T09:26:25.786Z,3791.25
2018-06-04T09:27:25.806Z,3802.50
2018-06-04T09:28:25.826Z,3785.63
2018-06-04T09:29:25.843Z,3695.63
2018-06-04T09:30:25.863Z,3780.00
2018-06-04T09:31:25.880Z,3695.63
2018-06-04T09:32:25.892Z,3915.00
2018-06-04T09:33:25.910Z,3870.00
2018-06-04T09:34:25.931Z,3870.00
2018-06-04T09:35:25.946Z,3875.63
2018-06-04T09:36:25.967Z,3808.13
2018-06-04T09:37:25.989Z,3791.25
2018-06-04T09:38:25.999Z,3870.00
2018-06-04T09:39:26.017Z,3864.38
2018-06-04T09:40:26.038Z,3892.50
2018-06-04T09:41:26.063Z,3847.50
2018-06-04T09:42:26.076Z,3189.38
2018-06-04T09:43:26.098Z,3397.50
2018-06-04T09:44:26.106Z,1321.88
2018-06-04T09:45:26.125Z,3870.00
2018-06-04T09:46:26.145Z,3718.13
2018-06-04T09:47:26.212Z,2328.75
2018-06-04T09:48:26.183Z,3740.63
2018-06-04T09:49:26.202Z,1305.00
2018-06-04T09:50:26.222Z,2941.88
2018-06-04T09:51:26.238Z,3003.75
2018-06-04T09:52:26.250Z,2401.88
2018-06-04T09:53:26.274Z,3459.38
2018-06-04T09:54:26.294Z,3301.88
2018-06-04T09:55:26.312Z,1653.75
2018-06-04T09:56:26.323Z,911.25
2018-06-04T09:57:26.341Z,928.13
2018-06-04T09:58:26.359Z,978.75
2018-06-04T09:59:26.377Z,2041.88
2018-06-04T10:00:26.398Z,2227.50
2018-06-04T10:01:26.414Z,3178.13
2018-06-04T10:02:26.432Z,3138.75
2018-06-04T10:03:26.452Z,2986.88
2018-06-04T10:04:26.457Z,3037.50
2018-06-04T10:05:26.474Z,3020.63
2018-06-04T10:06:26.490Z,2885.63
2018-06-04T10:07:26.510Z,787.50
2018-06-04T10:08:26.548Z,691.88
2018-06-04T10:09:26.543Z,641.25
2018-06-04T10:10:26.555Z,669.38
2018-06-04T10:11:26.571Z,748.13
2018-06-04T10:12:26.590Z,995.63
2018-06-04T10:13:26.606Z,2986.88
2018-06-04T10:14:26.623Z,2964.38
2018-06-04T10:15:26.637Z,3307.50
2018-06-04T10:16:26.647Z,4522.50
2018-06-04T10:17:26.668Z,4561.88
2018-06-04T10:18:26.678Z,2103.75
2018-06-04T10:19:26.693Z,1321.88
2018-06-04T10:20:26.712Z,5478.75
2018-06-04T10:21:26.728Z,1501.88
2018-06-04T10:22:26.754Z,3178.13
2018-06-04T10:23:26.757Z,5236.88
2018-06-04T10:24:26.768Z,5203.13
2018-06-04T10:25:26.784Z,5220.00
2018-06-04T10:26:26.803Z,5310.00
2018-06-04T10:27:26.830Z,4961.25
2018-06-04T10:28:26.832Z,5011.88
2018-06-04T10:29:26.847Z,4826.25
2018-06-04T10:30:26.860Z,5349.38
2018-06-04T10:31:26.876Z,1575.00
2018-06-04T10:32:26.896Z,2098.13
2018-06-04T10:33:26.916Z,995.63
2018-06-04T10:34:26.928Z,1108.13
2018-06-04T10:35:26.945Z,810.00
2018-06-04T10:36:26.955Z,798.75
2018-06-04T10:37:26.973Z,843.75
2018-06-04T10:38:26.988Z,1164.38
2018-06-04T10:39:27.005Z,1513.13
2018-06-04T10:40:27.033Z,5422.50
2018-06-04T10:41:27.044Z,5096.25
2018-06-04T10:42:27.050Z,1338.75
2018-06-04T10:43:27.065Z,2998.13
2018-06-04T10:44:27.082Z,3875.63
2018-06-04T10:45:27.098Z,1141.88
2018-06-04T10:46:27.173Z,3048.75
2018-06-04T10:47:27.126Z,5962.50
2018-06-04T10:48:27.136Z,5647.50
2018-06-04T10:49:27.150Z,5405.63
2018-06-04T10:50:27.165Z,5315.63
2018-06-04T10:51:27.183Z,2587.50
2018-06-04T10:52:27.197Z,855.00
2018-06-04T10:53:27.213Z,888.75
2018-06-04T10:54:27.229Z,843.75
2018-06-04T10:55:27.243Z,815.63
2018-06-04T10:56:27.251Z,888.75
2018-06-04T10:57:27.270Z,2542.50
2018-06-04T10:58:27.285Z,5523.75
2018-06-04T10:59:27.300Z,1614.38
2018-06-04T11:00:27.309Z,3903.75
2018-06-04T11:01:27.321Z,4702.50
2018-06-04T11:02:27.337Z,5197.50
2018-06-04T11:03:27.350Z,5220.00
2018-06-04T11:04:27.367Z,5388.75
2018-06-04T11:05:27.382Z,1164.38
2018-06-04T11:06:27.396Z,2435.63
2018-06-04T11:07:27.411Z,5625.00
2018-06-04T11:08:27.420Z,4235.63
2018-06-04T11:09:27.435Z,2728.13
2018-06-04T11:10:27.453Z,5506.88
2018-06-04T11:11:27.467Z,3363.75
2018-06-04T11:12:27.487Z,961.88
2018-06-04T11:13:27.499Z,922.50
2018-06-04T11:14:27.508Z,2115.00
2018-06-04T11:15:27.523Z,832.50
2018-06-04T11:16:27.541Z,826.88
2018-06-04T11:17:27.556Z,894.38
2018-06-04T11:18:27.568Z,2098.13
2018-06-04T11:19:27.582Z,1164.38
2018-06-04T11:20:27.592Z,1248.75
2018-06-04T11:21:27.604Z,1350.00
2018-06-04T11:22:27.621Z,1400.63
2018-06-04T11:23:27.630Z,1215.00
2018-06-04T11:24:27.645Z,1248.75
2018-06-04T11:25:27.659Z,1237.50
2018-06-04T11:26:27.672Z,1023.75
2018-06-04T11:27:27.682Z,804.38
2018-06-04T11:28:27.689Z,759.38
2018-06-04T11:29:27.701Z,776.25
2018-06-04T11:30:27.738Z,815.63
2018-06-04T11:31:27.729Z,871.88
2018-06-04T11:32:27.738Z,967.50
2018-06-04T11:33:27.747Z,1006.88
2018-06-04T11:34:27.757Z,956.25
2018-06-04T11:35:27.769Z,950.63
2018-06-04T11:36:27.782Z,995.63
2018-06-04T11:37:27.844Z,1051.88
2018-06-04T11:38:27.805Z,1141.88
2018-06-04T11:39:27.814Z,1192.50
2018-06-04T11:40:27.823Z,1186.88
2018-06-04T11:41:27.829Z,1175.63
2018-06-04T11:42:27.837Z,1153.13
2018-06-04T11:43:27.848Z,1141.88
2018-06-04T11:44:27.860Z,1130.63
2018-06-04T11:45:27.871Z,1119.38
2018-06-04T11:46:27.876Z,1074.38
2018-06-04T11:47:27.885Z,1023.75
2018-06-04T11:48:27.897Z,1006.88
2018-06-04T11:49:27.906Z,984.38
2018-06-04T11:50:27.922Z,978.75
2018-06-04T11:51:27.927Z,967.50
2018-06-04T11:52:27.929Z,973.13
2018-06-04T11:53:27.940Z,990.00
2018-06-04T11:54:27.948Z,1040.63
2018-06-04T11:55:27.957Z,1096.88
2018-06-04T11:56:28.019Z,1130.63
2018-06-04T11:57:27.979Z,1175.63
2018-06-04T11:58:27.986Z,1085.63
2018-06-04T11:59:27.993Z,911.25
2018-06-04T12:00:27.998Z,866.25
2018-06-04T12:01:28.004Z,832.50
2018-06-04T12:02:28.017Z,821.25
2018-06-04T12:03:28.026Z,916.88
2018-06-04T12:04:28.029Z,939.38
2018-06-04T12:05:28.038Z,1046.25
2018-06-04T12:06:28.046Z,1113.75
2018-06-04T12:07:28.054Z,1051.88
2018-06-04T12:08:28.067Z,1040.63
2018-06-04T12:09:28.077Z,990.00
2018-06-04T12:10:28.083Z,894.38
2018-06-04T12:11:28.157Z,916.88
2018-06-04T12:12:28.094Z,866.25
2018-06-04T12:13:28.102Z,821.25
2018-06-04T12:14:28.116Z,759.38
2018-06-04T12:15:28.123Z,703.13
2018-06-04T12:16:28.146Z,686.25
2018-06-04T12:17:28.168Z,697.50
2018-06-04T12:18:28.145Z,731.25
2018-06-04T12:19:28.147Z,776.25
2018-06-04T12:20:28.162Z,849.38
2018-06-04T12:21:28.167Z,945.00
2018-06-04T12:22:28.178Z,1023.75
2018-06-04T12:23:28.185Z,1074.38
2018-06-04T12:24:28.185Z,1057.50
2018-06-04T12:25:28.194Z,984.38
2018-06-04T12:26:28.202Z,866.25
2018-06-04T12:27:28.210Z,697.50
2018-06-04T12:28:28.221Z,601.88
2018-06-04T12:29:28.229Z,545.63
2018-06-04T12:30:28.237Z,500.63
2018-06-04T12:31:28.244Z,489.38